sensor_id;sensor_type;location;lat;lon;timestamp;P1;durP1;ratioP1;P2;durP2;ratioP2
13584;SDS011;6863;48.402;9.994;2022-10-16T00:00:56;4.73;;;4.30;;
13584;SDS011;6863;48.402;9.994;2022-10-16T00:03:22;5.57;;;4.97;;
13584;SDS011;6863;48.402;9.994;2022-10-16T00:05:47;6.10;;;4.40;;
13584;SDS011;6863;48.402;9.994;2022-10-16T00:08:13;4.90;;;4.30;;
13584;SDS011;6863;48.402;9.994;2022-10-16T00:10:39;5.03;;;4.50;;
13584;SDS011;6863;48.402;9.994;2022-10-16T00:13:05;4.50;;;4.10;;
13584;SDS011;6863;48.402;9.994;2022-10-16T00:15:34;4.07;;;3.67;;
13584;SDS011;6863;48.402;9.994;2022-10-16T00:18:01;6.77;;;4.23;;
13584;SDS011;6863;48.402;9.994;2022-10-16T00:20:28;6.03;;;4.70;;
13584;SDS011;6863;48.402;9.994;2022-10-16T00:22:56;5.20;;;4.63;;
13584;SDS011;6863;48.402;9.994;2022-10-16T00:25:22;6.70;;;4.97;;
13584;SDS011;6863;48.402;9.994;2022-10-16T00:27:48;5.70;;;4.83;;
13584;SDS011;6863;48.402;9.994;2022-10-16T00:30:13;7.00;;;4.70;;
13584;SDS011;6863;48.402;9.994;2022-10-16T00:32:39;4.93;;;4.43;;
13584;SDS011;6863;48.402;9.994;2022-10-16T00:35:04;7.20;;;5.67;;
13584;SDS011;6863;48.402;9.994;2022-10-16T00:37:30;5.73;;;4.80;;
13584;SDS011;6863;48.402;9.994;2022-10-16T00:39:56;5.47;;;4.80;;
13584;SDS011;6863;48.402;9.994;2022-10-16T00:42:22;5.17;;;4.73;;
13584;SDS011;6863;48.402;9.994;2022-10-16T00:44:49;6.73;;;5.40;;
13584;SDS011;6863;48.402;9.994;2022-10-16T00:47:19;5.60;;;5.10;;
13584;SDS011;6863;48.402;9.994;2022-10-16T00:49:49;5.20;;;4.70;;
13584;SDS011;6863;48.402;9.994;2022-10-16T00:52:18;5.67;;;5.07;;
13584;SDS011;6863;48.402;9.994;2022-10-16T00:54:44;6.10;;;5.33;;
13584;SDS011;6863;48.402;9.994;2022-10-16T00:57:12;6.43;;;5.10;;
13584;SDS011;6863;48.402;9.994;2022-10-16T00:59:38;8.30;;;5.37;;
13584;SDS011;6863;48.402;9.994;2022-10-16T01:02:06;6.33;;;5.33;;
13584;SDS011;6863;48.402;9.994;2022-10-16T01:04:35;6.13;;;5.53;;
13584;SDS011;6863;48.402;9.994;2022-10-16T01:07:12;6.20;;;5.70;;
13584;SDS011;6863;48.402;9.994;2022-10-16T01:15:10;7.80;;;7.03;;
13584;SDS011;6863;48.402;9.994;2022-10-16T01:25:32;7.83;;;6.73;;
13584;SDS011;6863;48.402;9.994;2022-10-16T01:28:02;6.50;;;6.00;;
13584;SDS011;6863;48.402;9.994;2022-10-16T01:30:31;6.63;;;5.93;;
13584;SDS011;6863;48.402;9.994;2022-10-16T01:34:00;6.63;;;5.87;;
13584;SDS011;6863;48.402;9.994;2022-10-16T01:36:02;7.13;;;6.17;;
13584;SDS011;6863;48.402;9.994;2022-10-16T01:38:34;7.20;;;6.03;;
13584;SDS011;6863;48.402;9.994;2022-10-16T01:41:25;7.00;;;5.97;;
13584;SDS011;6863;48.402;9.994;2022-10-16T01:44:04;6.43;;;5.83;;
13584;SDS011;6863;48.402;9.994;2022-10-16T01:46:33;6.83;;;6.23;;
13584;SDS011;6863;48.402;9.994;2022-10-16T01:49:02;6.20;;;5.70;;
13584;SDS011;6863;48.402;9.994;2022-10-16T01:51:29;6.77;;;6.07;;
13584;SDS011;6863;48.402;9.994;2022-10-16T01:53:55;8.07;;;6.10;;
13584;SDS011;6863;48.402;9.994;2022-10-16T01:56:24;6.00;;;5.40;;
13584;SDS011;6863;48.402;9.994;2022-10-16T01:58:52;6.70;;;5.63;;
13584;SDS011;6863;48.402;9.994;2022-10-16T02:01:22;6.43;;;5.33;;
13584;SDS011;6863;48.402;9.994;2022-10-16T02:03:51;5.93;;;5.43;;
13584;SDS011;6863;48.402;9.994;2022-10-16T02:06:18;6.43;;;5.87;;
13584;SDS011;6863;48.402;9.994;2022-10-16T02:08:45;8.13;;;5.87;;
13584;SDS011;6863;48.402;9.994;2022-10-16T02:11:11;5.80;;;5.30;;
13584;SDS011;6863;48.402;9.994;2022-10-16T02:13:51;5.70;;;5.17;;
13584;SDS011;6863;48.402;9.994;2022-10-16T02:16:32;7.20;;;6.17;;
13584;SDS011;6863;48.402;9.994;2022-10-16T02:19:09;7.50;;;5.97;;
13584;SDS011;6863;48.402;9.994;2022-10-16T02:21:51;7.00;;;5.80;;
13584;SDS011;6863;48.402;9.994;2022-10-16T02:24:28;5.47;;;4.97;;
13584;SDS011;6863;48.402;9.994;2022-10-16T02:29:47;12.53;;;6.13;;
13584;SDS011;6863;48.402;9.994;2022-10-16T02:32:19;5.90;;;5.40;;
13584;SDS011;6863;48.402;9.994;2022-10-16T02:34:47;5.93;;;5.37;;
13584;SDS011;6863;48.402;9.994;2022-10-16T02:37:14;9.97;;;5.50;;
13584;SDS011;6863;48.402;9.994;2022-10-16T02:39:41;6.40;;;5.43;;
13584;SDS011;6863;48.402;9.994;2022-10-16T02:42:13;6.13;;;5.53;;
13584;SDS011;6863;48.402;9.994;2022-10-16T02:44:40;6.23;;;5.47;;
13584;SDS011;6863;48.402;9.994;2022-10-16T02:47:06;7.33;;;6.30;;
13584;SDS011;6863;48.402;9.994;2022-10-16T02:49:31;6.70;;;6.10;;
13584;SDS011;6863;48.402;9.994;2022-10-16T02:51:57;5.73;;;5.20;;
13584;SDS011;6863;48.402;9.994;2022-10-16T02:54:23;7.30;;;5.40;;
13584;SDS011;6863;48.402;9.994;2022-10-16T02:56:49;5.60;;;5.10;;
13584;SDS011;6863;48.402;9.994;2022-10-16T02:59:14;7.83;;;5.70;;
13584;SDS011;6863;48.402;9.994;2022-10-16T03:01:40;8.20;;;5.63;;
13584;SDS011;6863;48.402;9.994;2022-10-16T03:04:06;6.63;;;5.17;;
13584;SDS011;6863;48.402;9.994;2022-10-16T03:06:31;5.70;;;5.20;;
13584;SDS011;6863;48.402;9.994;2022-10-16T03:08:57;6.23;;;5.43;;
13584;SDS011;6863;48.402;9.994;2022-10-16T03:11:22;5.57;;;5.00;;
13584;SDS011;6863;48.402;9.994;2022-10-16T03:13:48;7.37;;;5.77;;
13584;SDS011;6863;48.402;9.994;2022-10-16T03:16:14;5.57;;;5.17;;
13584;SDS011;6863;48.402;9.994;2022-10-16T03:18:39;5.87;;;5.10;;
13584;SDS011;6863;48.402;9.994;2022-10-16T03:21:05;6.03;;;5.13;;
13584;SDS011;6863;48.402;9.994;2022-10-16T03:23:30;5.70;;;5.20;;
13584;SDS011;6863;48.402;9.994;2022-10-16T03:25:56;6.03;;;5.27;;
13584;SDS011;6863;48.402;9.994;2022-10-16T03:28:22;8.13;;;5.27;;
13584;SDS011;6863;48.402;9.994;2022-10-16T03:30:47;5.17;;;4.73;;
13584;SDS011;6863;48.402;9.994;2022-10-16T03:33:13;5.37;;;4.90;;
13584;SDS011;6863;48.402;9.994;2022-10-16T03:35:38;5.40;;;4.90;;
13584;SDS011;6863;48.402;9.994;2022-10-16T03:38:04;5.07;;;4.67;;
13584;SDS011;6863;48.402;9.994;2022-10-16T03:40:30;4.83;;;4.33;;
13584;SDS011;6863;48.402;9.994;2022-10-16T03:42:57;5.23;;;4.77;;
13584;SDS011;6863;48.402;9.994;2022-10-16T03:45:23;5.67;;;5.00;;
13584;SDS011;6863;48.402;9.994;2022-10-16T03:47:49;7.40;;;5.33;;
13584;SDS011;6863;48.402;9.994;2022-10-16T03:50:14;4.73;;;4.40;;
13584;SDS011;6863;48.402;9.994;2022-10-16T03:52:40;5.10;;;4.60;;
13584;SDS011;6863;48.402;9.994;2022-10-16T03:55:06;6.53;;;5.07;;
13584;SDS011;6863;48.402;9.994;2022-10-16T03:57:32;5.63;;;4.60;;
13584;SDS011;6863;48.402;9.994;2022-10-16T03:59:58;5.53;;;4.93;;
13584;SDS011;6863;48.402;9.994;2022-10-16T04:02:24;5.37;;;4.87;;
13584;SDS011;6863;48.402;9.994;2022-10-16T04:04:49;5.00;;;4.37;;
13584;SDS011;6863;48.402;9.994;2022-10-16T04:07:15;4.50;;;4.10;;
13584;SDS011;6863;48.402;9.994;2022-10-16T04:09:41;4.50;;;4.10;;
13584;SDS011;6863;48.402;9.994;2022-10-16T04:12:07;6.00;;;5.27;;
13584;SDS011;6863;48.402;9.994;2022-10-16T04:14:32;5.83;;;4.43;;
13584;SDS011;6863;48.402;9.994;2022-10-16T04:16:58;6.03;;;4.60;;
13584;SDS011;6863;48.402;9.994;2022-10-16T04:19:24;4.37;;;3.97;;
13584;SDS011;6863;48.402;9.994;2022-10-16T04:21:50;4.40;;;4.00;;
13584;SDS011;6863;48.402;9.994;2022-10-16T04:24:15;6.03;;;4.33;;
13584;SDS011;6863;48.402;9.994;2022-10-16T04:26:41;6.73;;;4.70;;
13584;SDS011;6863;48.402;9.994;2022-10-16T04:29:06;4.43;;;4.00;;
13584;SDS011;6863;48.402;9.994;2022-10-16T04:31:32;4.30;;;4.00;;
13584;SDS011;6863;48.402;9.994;2022-10-16T04:33:58;7.00;;;4.60;;
13584;SDS011;6863;48.402;9.994;2022-10-16T04:36:23;5.13;;;4.73;;
13584;SDS011;6863;48.402;9.994;2022-10-16T04:38:49;5.90;;;5.00;;
13584;SDS011;6863;48.402;9.994;2022-10-16T04:41:14;5.20;;;4.37;;
13584;SDS011;6863;48.402;9.994;2022-10-16T04:43:40;5.53;;;5.03;;
13584;SDS011;6863;48.402;9.994;2022-10-16T04:46:06;6.00;;;5.10;;
13584;SDS011;6863;48.402;9.994;2022-10-16T04:48:31;5.57;;;5.07;;
13584;SDS011;6863;48.402;9.994;2022-10-16T04:50:57;6.27;;;5.70;;
13584;SDS011;6863;48.402;9.994;2022-10-16T04:53:22;6.57;;;5.10;;
13584;SDS011;6863;48.402;9.994;2022-10-16T04:55:48;6.30;;;5.80;;
13584;SDS011;6863;48.402;9.994;2022-10-16T04:58:14;7.27;;;5.73;;
13584;SDS011;6863;48.402;9.994;2022-10-16T05:00:40;7.03;;;6.40;;
13584;SDS011;6863;48.402;9.994;2022-10-16T05:03:06;7.50;;;6.50;;
13584;SDS011;6863;48.402;9.994;2022-10-16T05:05:33;9.17;;;6.87;;
13584;SDS011;6863;48.402;9.994;2022-10-16T05:08:00;7.43;;;6.67;;
13584;SDS011;6863;48.402;9.994;2022-10-16T05:10:25;9.13;;;6.43;;
13584;SDS011;6863;48.402;9.994;2022-10-16T05:12:51;8.37;;;7.53;;
13584;SDS011;6863;48.402;9.994;2022-10-16T05:15:17;7.83;;;7.03;;
13584;SDS011;6863;48.402;9.994;2022-10-16T05:17:43;10.17;;;7.37;;
13584;SDS011;6863;48.402;9.994;2022-10-16T05:20:09;9.30;;;6.87;;
13584;SDS011;6863;48.402;9.994;2022-10-16T05:22:35;7.13;;;6.43;;
13584;SDS011;6863;48.402;9.994;2022-10-16T05:25:00;6.63;;;6.03;;
13584;SDS011;6863;48.402;9.994;2022-10-16T05:27:26;7.77;;;6.70;;
13584;SDS011;6863;48.402;9.994;2022-10-16T05:29:51;6.57;;;5.87;;
13584;SDS011;6863;48.402;9.994;2022-10-16T05:32:17;6.97;;;6.00;;
13584;SDS011;6863;48.402;9.994;2022-10-16T05:34:44;7.40;;;6.67;;
13584;SDS011;6863;48.402;9.994;2022-10-16T05:37:10;8.20;;;7.40;;
13584;SDS011;6863;48.402;9.994;2022-10-16T05:39:37;8.70;;;7.83;;
13584;SDS011;6863;48.402;9.994;2022-10-16T05:42:03;10.17;;;9.10;;
13584;SDS011;6863;48.402;9.994;2022-10-16T05:44:29;8.40;;;7.50;;
13584;SDS011;6863;48.402;9.994;2022-10-16T05:46:55;8.07;;;7.03;;
13584;SDS011;6863;48.402;9.994;2022-10-16T05:49:21;7.97;;;7.17;;
13584;SDS011;6863;48.402;9.994;2022-10-16T05:51:46;6.37;;;5.77;;
13584;SDS011;6863;48.402;9.994;2022-10-16T05:54:12;7.90;;;6.30;;
13584;SDS011;6863;48.402;9.994;2022-10-16T05:56:37;11.27;;;8.27;;
13584;SDS011;6863;48.402;9.994;2022-10-16T05:59:04;5.60;;;5.10;;
13584;SDS011;6863;48.402;9.994;2022-10-16T06:01:29;8.70;;;5.47;;
13584;SDS011;6863;48.402;9.994;2022-10-16T06:03:56;6.17;;;5.30;;
13584;SDS011;6863;48.402;9.994;2022-10-16T06:06:23;8.23;;;5.63;;
13584;SDS011;6863;48.402;9.994;2022-10-16T06:08:53;6.30;;;5.27;;
13584;SDS011;6863;48.402;9.994;2022-10-16T06:11:21;6.30;;;5.70;;
13584;SDS011;6863;48.402;9.994;2022-10-16T06:13:49;6.90;;;6.20;;
13584;SDS011;6863;48.402;9.994;2022-10-16T06:16:15;7.70;;;7.00;;
13584;SDS011;6863;48.402;9.994;2022-10-16T06:18:41;6.37;;;5.87;;
13584;SDS011;6863;48.402;9.994;2022-10-16T06:21:08;8.73;;;6.20;;
13584;SDS011;6863;48.402;9.994;2022-10-16T06:23:35;6.87;;;6.00;;
13584;SDS011;6863;48.402;9.994;2022-10-16T06:26:04;8.57;;;6.40;;
13584;SDS011;6863;48.402;9.994;2022-10-16T06:28:31;7.87;;;5.97;;
13584;SDS011;6863;48.402;9.994;2022-10-16T06:30:59;6.37;;;5.77;;
13584;SDS011;6863;48.402;9.994;2022-10-16T06:33:25;6.67;;;5.60;;
13584;SDS011;6863;48.402;9.994;2022-10-16T06:35:51;9.57;;;6.07;;
13584;SDS011;6863;48.402;9.994;2022-10-16T06:38:17;6.47;;;5.83;;
13584;SDS011;6863;48.402;9.994;2022-10-16T06:40:42;5.73;;;5.23;;
13584;SDS011;6863;48.402;9.994;2022-10-16T06:43:08;8.30;;;5.80;;
13584;SDS011;6863;48.402;9.994;2022-10-16T06:45:33;8.47;;;5.53;;
13584;SDS011;6863;48.402;9.994;2022-10-16T06:47:59;5.60;;;5.10;;
13584;SDS011;6863;48.402;9.994;2022-10-16T06:50:24;5.63;;;5.20;;
13584;SDS011;6863;48.402;9.994;2022-10-16T06:52:50;7.20;;;5.37;;
13584;SDS011;6863;48.402;9.994;2022-10-16T06:55:16;5.43;;;4.93;;
13584;SDS011;6863;48.402;9.994;2022-10-16T06:57:42;5.53;;;5.03;;
13584;SDS011;6863;48.402;9.994;2022-10-16T07:00:08;6.07;;;5.00;;
13584;SDS011;6863;48.402;9.994;2022-10-16T07:02:34;6.27;;;5.00;;
13584;SDS011;6863;48.402;9.994;2022-10-16T07:05:00;5.37;;;4.87;;
13584;SDS011;6863;48.402;9.994;2022-10-16T07:07:25;6.70;;;4.70;;
13584;SDS011;6863;48.402;9.994;2022-10-16T07:09:51;5.57;;;4.63;;
13584;SDS011;6863;48.402;9.994;2022-10-16T07:12:17;6.87;;;4.43;;
13584;SDS011;6863;48.402;9.994;2022-10-16T07:14:43;4.70;;;4.30;;
13584;SDS011;6863;48.402;9.994;2022-10-16T07:17:08;5.27;;;4.43;;
13584;SDS011;6863;48.402;9.994;2022-10-16T07:19:34;4.87;;;4.47;;
13584;SDS011;6863;48.402;9.994;2022-10-16T07:21:59;6.80;;;4.13;;
13584;SDS011;6863;48.402;9.994;2022-10-16T07:24:25;4.97;;;4.47;;
13584;SDS011;6863;48.402;9.994;2022-10-16T07:26:51;8.17;;;4.47;;
13584;SDS011;6863;48.402;9.994;2022-10-16T07:29:18;6.63;;;4.17;;
13584;SDS011;6863;48.402;9.994;2022-10-16T07:31:46;4.70;;;4.30;;
13584;SDS011;6863;48.402;9.994;2022-10-16T07:34:13;4.60;;;4.17;;
13584;SDS011;6863;48.402;9.994;2022-10-16T07:36:39;6.27;;;4.47;;
13584;SDS011;6863;48.402;9.994;2022-10-16T07:39:05;4.90;;;4.37;;
13584;SDS011;6863;48.402;9.994;2022-10-16T07:41:31;6.80;;;4.73;;
13584;SDS011;6863;48.402;9.994;2022-10-16T07:43:57;6.67;;;5.00;;
13584;SDS011;6863;48.402;9.994;2022-10-16T07:46:27;7.17;;;4.50;;
13584;SDS011;6863;48.402;9.994;2022-10-16T07:48:53;8.37;;;4.83;;
13584;SDS011;6863;48.402;9.994;2022-10-16T07:51:20;5.30;;;4.60;;
13584;SDS011;6863;48.402;9.994;2022-10-16T07:53:47;4.30;;;3.90;;
13584;SDS011;6863;48.402;9.994;2022-10-16T07:56:13;6.63;;;5.93;;
13584;SDS011;6863;48.402;9.994;2022-10-16T07:58:40;9.17;;;4.10;;
13584;SDS011;6863;48.402;9.994;2022-10-16T08:01:06;5.57;;;4.22;;
13584;SDS011;6863;48.402;9.994;2022-10-16T08:03:34;4.22;;;3.85;;
13584;SDS011;6863;48.402;9.994;2022-10-16T08:05:59;7.03;;;4.73;;
13584;SDS011;6863;48.402;9.994;2022-10-16T08:08:26;7.55;;;4.18;;
13584;SDS011;6863;48.402;9.994;2022-10-16T08:10:52;5.05;;;4.32;;
13584;SDS011;6863;48.402;9.994;2022-10-16T08:13:18;4.57;;;4.18;;
13584;SDS011;6863;48.402;9.994;2022-10-16T08:15:44;4.38;;;4.00;;
13584;SDS011;6863;48.402;9.994;2022-10-16T08:18:10;4.30;;;3.90;;
13584;SDS011;6863;48.402;9.994;2022-10-16T08:20:37;4.85;;;4.45;;
13584;SDS011;6863;48.402;9.994;2022-10-16T08:23:03;7.53;;;6.72;;
13584;SDS011;6863;48.402;9.994;2022-10-16T08:25:29;7.28;;;4.57;;
13584;SDS011;6863;48.402;9.994;2022-10-16T08:27:55;4.90;;;4.00;;
13584;SDS011;6863;48.402;9.994;2022-10-16T08:30:21;4.78;;;3.90;;
13584;SDS011;6863;48.402;9.994;2022-10-16T08:32:48;4.75;;;4.15;;
13584;SDS011;6863;48.402;9.994;2022-10-16T08:35:14;6.18;;;5.05;;
13584;SDS011;6863;48.402;9.994;2022-10-16T08:37:41;5.63;;;4.13;;
13584;SDS011;6863;48.402;9.994;2022-10-16T08:40:10;5.03;;;3.90;;
13584;SDS011;6863;48.402;9.994;2022-10-16T08:50:32;6.18;;;4.30;;
13584;SDS011;6863;48.402;9.994;2022-10-16T08:53:03;4.35;;;3.95;;
13584;SDS011;6863;48.402;9.994;2022-10-16T08:55:33;7.13;;;4.47;;
13584;SDS011;6863;48.402;9.994;2022-10-16T08:58:09;4.75;;;3.85;;
13584;SDS011;6863;48.402;9.994;2022-10-16T09:00:38;5.47;;;4.20;;
13584;SDS011;6863;48.402;9.994;2022-10-16T09:03:11;4.90;;;4.50;;
13584;SDS011;6863;48.402;9.994;2022-10-16T09:11:48;5.20;;;4.10;;
13584;SDS011;6863;48.402;9.994;2022-10-16T09:14:42;5.15;;;4.50;;
13584;SDS011;6863;48.402;9.994;2022-10-16T09:22:46;6.13;;;5.57;;
13584;SDS011;6863;48.402;9.994;2022-10-16T09:25:13;4.65;;;4.35;;
13584;SDS011;6863;48.402;9.994;2022-10-16T09:27:42;3.88;;;3.58;;
13584;SDS011;6863;48.402;9.994;2022-10-16T09:30:17;6.57;;;4.57;;
13584;SDS011;6863;48.402;9.994;2022-10-16T09:32:44;4.57;;;3.85;;
13584;SDS011;6863;48.402;9.994;2022-10-16T09:35:56;5.78;;;5.22;;
13584;SDS011;6863;48.402;9.994;2022-10-16T09:38:01;7.80;;;5.55;;
13584;SDS011;6863;48.402;9.994;2022-10-16T09:40:28;7.78;;;5.00;;
13584;SDS011;6863;48.402;9.994;2022-10-16T09:42:57;4.43;;;3.63;;
13584;SDS011;6863;48.402;9.994;2022-10-16T09:45:41;5.15;;;3.80;;
13584;SDS011;6863;48.402;9.994;2022-10-16T09:48:11;4.35;;;3.97;;
13584;SDS011;6863;48.402;9.994;2022-10-16T09:50:37;3.88;;;3.58;;
13584;SDS011;6863;48.402;9.994;2022-10-16T09:53:13;4.18;;;3.60;;
13584;SDS011;6863;48.402;9.994;2022-10-16T09:55:49;4.85;;;3.85;;
13584;SDS011;6863;48.402;9.994;2022-10-16T09:58:16;4.72;;;3.75;;
13584;SDS011;6863;48.402;9.994;2022-10-16T10:00:42;3.90;;;3.30;;
13584;SDS011;6863;48.402;9.994;2022-10-16T10:06:04;4.13;;;3.20;;
13584;SDS011;6863;48.402;9.994;2022-10-16T10:08:52;6.47;;;3.58;;
13584;SDS011;6863;48.402;9.994;2022-10-16T10:11:35;3.13;;;2.92;;
13584;SDS011;6863;48.402;9.994;2022-10-16T10:19:36;4.05;;;3.75;;
13584;SDS011;6863;48.402;9.994;2022-10-16T10:22:16;3.30;;;3.10;;
13584;SDS011;6863;48.402;9.994;2022-10-16T10:24:46;2.95;;;2.75;;
13584;SDS011;6863;48.402;9.994;2022-10-16T10:30:20;3.70;;;3.40;;
13584;SDS011;6863;48.402;9.994;2022-10-16T10:33:05;2.85;;;2.60;;
13584;SDS011;6863;48.402;9.994;2022-10-16T10:35:53;4.03;;;2.90;;
13584;SDS011;6863;48.402;9.994;2022-10-16T10:38:49;2.88;;;2.67;;
13584;SDS011;6863;48.402;9.994;2022-10-16T10:41:21;2.70;;;2.47;;
13584;SDS011;6863;48.402;9.994;2022-10-16T10:49:34;3.33;;;3.03;;
13584;SDS011;6863;48.402;9.994;2022-10-16T11:03:21;4.20;;;2.78;;
13584;SDS011;6863;48.402;9.994;2022-10-16T11:06:12;2.92;;;2.72;;
13584;SDS011;6863;48.402;9.994;2022-10-16T11:08:59;3.78;;;2.75;;
13584;SDS011;6863;48.402;9.994;2022-10-16T11:11:41;3.20;;;2.90;;
13584;SDS011;6863;48.402;9.994;2022-10-16T11:14:16;2.55;;;2.35;;
13584;SDS011;6863;48.402;9.994;2022-10-16T11:16:52;3.25;;;2.75;;
13584;SDS011;6863;48.402;9.994;2022-10-16T11:27:40;4.90;;;2.90;;
13584;SDS011;6863;48.402;9.994;2022-10-16T11:30:24;4.03;;;2.85;;
13584;SDS011;6863;48.402;9.994;2022-10-16T11:38:55;4.10;;;2.60;;
13584;SDS011;6863;48.402;9.994;2022-10-16T11:43:58;2.95;;;2.58;;
13584;SDS011;6863;48.402;9.994;2022-10-16T11:47:03;2.92;;;2.63;;
13584;SDS011;6863;48.402;9.994;2022-10-16T11:49:36;3.60;;;2.45;;
13584;SDS011;6863;48.402;9.994;2022-10-16T11:52:19;2.83;;;2.55;;
13584;SDS011;6863;48.402;9.994;2022-10-16T11:55:15;2.10;;;1.90;;
13584;SDS011;6863;48.402;9.994;2022-10-16T11:57:49;3.95;;;2.47;;
13584;SDS011;6863;48.402;9.994;2022-10-16T12:08:14;2.58;;;1.90;;
13584;SDS011;6863;48.402;9.994;2022-10-16T12:10:42;3.42;;;2.05;;
13584;SDS011;6863;48.402;9.994;2022-10-16T12:18:40;2.00;;;1.90;;
13584;SDS011;6863;48.402;9.994;2022-10-16T12:21:07;3.25;;;2.17;;
13584;SDS011;6863;48.402;9.994;2022-10-16T12:23:36;2.17;;;1.83;;
13584;SDS011;6863;48.402;9.994;2022-10-16T12:26:04;3.80;;;2.40;;
13584;SDS011;6863;48.402;9.994;2022-10-16T12:28:31;4.72;;;2.10;;
13584;SDS011;6863;48.402;9.994;2022-10-16T12:30:59;2.42;;;2.22;;
13584;SDS011;6863;48.402;9.994;2022-10-16T12:33:27;2.33;;;2.13;;
13584;SDS011;6863;48.402;9.994;2022-10-16T12:36:01;4.30;;;2.00;;
13584;SDS011;6863;48.402;9.994;2022-10-16T12:38:45;2.45;;;2.25;;
13584;SDS011;6863;48.402;9.994;2022-10-16T12:41:23;2.17;;;1.98;;
13584;SDS011;6863;48.402;9.994;2022-10-16T12:44:04;3.63;;;2.10;;
13584;SDS011;6863;48.402;9.994;2022-10-16T12:46:46;2.00;;;1.90;;
13584;SDS011;6863;48.402;9.994;2022-10-16T12:51:37;2.50;;;1.83;;
13584;SDS011;6863;48.402;9.994;2022-10-16T12:56:50;2.20;;;2.00;;
13584;SDS011;6863;48.402;9.994;2022-10-16T13:05:19;2.25;;;1.80;;
13584;SDS011;6863;48.402;9.994;2022-10-16T13:10:55;1.80;;;1.70;;
13584;SDS011;6863;48.402;9.994;2022-10-16T13:25:13;5.78;;;2.47;;
13584;SDS011;6863;48.402;9.994;2022-10-16T13:27:52;2.78;;;2.58;;
13584;SDS011;6863;48.402;9.994;2022-10-16T13:30:28;6.35;;;5.80;;
13584;SDS011;6863;48.402;9.994;2022-10-16T13:32:58;2.70;;;1.60;;
13584;SDS011;6863;48.402;9.994;2022-10-16T13:35:30;2.35;;;1.75;;
13584;SDS011;6863;48.402;9.994;2022-10-16T13:40:51;2.00;;;1.80;;
13584;SDS011;6863;48.402;9.994;2022-10-16T13:43:51;1.55;;;1.45;;
13584;SDS011;6863;48.402;9.994;2022-10-16T13:48:43;3.08;;;1.80;;
13584;SDS011;6863;48.402;9.994;2022-10-16T13:51:17;1.95;;;1.85;;
13584;SDS011;6863;48.402;9.994;2022-10-16T13:53:43;2.47;;;2.03;;
13584;SDS011;6863;48.402;9.994;2022-10-16T13:56:11;2.08;;;1.83;;
13584;SDS011;6863;48.402;9.994;2022-10-16T13:58:39;1.85;;;1.70;;
13584;SDS011;6863;48.402;9.994;2022-10-16T14:01:05;1.73;;;1.70;;
13584;SDS011;6863;48.402;9.994;2022-10-16T14:03:42;2.53;;;1.60;;
13584;SDS011;6863;48.402;9.994;2022-10-16T14:06:13;1.73;;;1.63;;
13584;SDS011;6863;48.402;9.994;2022-10-16T14:08:51;2.90;;;2.00;;
13584;SDS011;6863;48.402;9.994;2022-10-16T14:11:27;1.80;;;1.70;;
13584;SDS011;6863;48.402;9.994;2022-10-16T14:13:53;3.17;;;1.80;;
13584;SDS011;6863;48.402;9.994;2022-10-16T14:16:20;1.73;;;1.60;;
13584;SDS011;6863;48.402;9.994;2022-10-16T14:18:55;2.30;;;1.80;;
13584;SDS011;6863;48.402;9.994;2022-10-16T14:21:21;3.10;;;2.03;;
13584;SDS011;6863;48.402;9.994;2022-10-16T14:23:47;3.00;;;1.95;;
13584;SDS011;6863;48.402;9.994;2022-10-16T14:26:14;7.75;;;4.68;;
13584;SDS011;6863;48.402;9.994;2022-10-16T14:28:42;6.88;;;2.30;;
13584;SDS011;6863;48.402;9.994;2022-10-16T14:33:51;2.38;;;2.00;;
13584;SDS011;6863;48.402;9.994;2022-10-16T14:36:16;1.88;;;1.70;;
13584;SDS011;6863;48.402;9.994;2022-10-16T14:38:48;5.88;;;2.65;;
13584;SDS011;6863;48.402;9.994;2022-10-16T14:41:14;6.25;;;4.93;;
13584;SDS011;6863;48.402;9.994;2022-10-16T14:43:41;2.13;;;1.98;;
13584;SDS011;6863;48.402;9.994;2022-10-16T14:46:14;2.22;;;1.92;;
13584;SDS011;6863;48.402;9.994;2022-10-16T14:48:42;1.75;;;1.65;;
13584;SDS011;6863;48.402;9.994;2022-10-16T14:51:16;3.38;;;2.10;;
13584;SDS011;6863;48.402;9.994;2022-10-16T14:53:43;3.47;;;3.17;;
13584;SDS011;6863;48.402;9.994;2022-10-16T14:56:19;5.03;;;2.92;;
13584;SDS011;6863;48.402;9.994;2022-10-16T14:58:47;7.05;;;6.40;;
13584;SDS011;6863;48.402;9.994;2022-10-16T15:01:14;2.15;;;1.60;;
13584;SDS011;6863;48.402;9.994;2022-10-16T15:03:40;1.95;;;1.80;;
13584;SDS011;6863;48.402;9.994;2022-10-16T15:06:09;2.90;;;2.10;;
13584;SDS011;6863;48.402;9.994;2022-10-16T15:08:36;2.45;;;2.25;;
13584;SDS011;6863;48.402;9.994;2022-10-16T15:11:02;2.47;;;2.28;;
13584;SDS011;6863;48.402;9.994;2022-10-16T15:13:28;2.95;;;1.73;;
13584;SDS011;6863;48.402;9.994;2022-10-16T15:15:54;3.13;;;2.88;;
13584;SDS011;6863;48.402;9.994;2022-10-16T15:18:19;4.78;;;2.40;;
13584;SDS011;6863;48.402;9.994;2022-10-16T15:20:47;3.55;;;2.25;;
13584;SDS011;6863;48.402;9.994;2022-10-16T15:23:20;2.83;;;1.83;;
13584;SDS011;6863;48.402;9.994;2022-10-16T15:25:47;2.33;;;1.80;;
13584;SDS011;6863;48.402;9.994;2022-10-16T15:28:18;3.47;;;1.90;;
13584;SDS011;6863;48.402;9.994;2022-10-16T15:30:44;4.20;;;1.90;;
13584;SDS011;6863;48.402;9.994;2022-10-16T15:33:12;2.72;;;2.50;;
13584;SDS011;6863;48.402;9.994;2022-10-16T15:35:39;3.05;;;1.90;;
13584;SDS011;6863;48.402;9.994;2022-10-16T15:38:05;2.15;;;1.75;;
13584;SDS011;6863;48.402;9.994;2022-10-16T15:40:30;2.10;;;2.00;;
13584;SDS011;6863;48.402;9.994;2022-10-16T15:42:56;5.13;;;2.47;;
13584;SDS011;6863;48.402;9.994;2022-10-16T15:45:22;5.53;;;5.03;;
13584;SDS011;6863;48.402;9.994;2022-10-16T15:47:47;4.63;;;2.35;;
13584;SDS011;6863;48.402;9.994;2022-10-16T15:50:14;2.45;;;2.20;;
13584;SDS011;6863;48.402;9.994;2022-10-16T15:52:41;3.47;;;1.70;;
13584;SDS011;6863;48.402;9.994;2022-10-16T15:55:08;1.90;;;1.70;;
13584;SDS011;6863;48.402;9.994;2022-10-16T15:57:35;3.30;;;2.70;;
13584;SDS011;6863;48.402;9.994;2022-10-16T16:00:04;2.38;;;2.13;;
13584;SDS011;6863;48.402;9.994;2022-10-16T16:02:38;3.30;;;2.33;;
13584;SDS011;6863;48.402;9.994;2022-10-16T16:05:04;2.10;;;2.00;;
13584;SDS011;6863;48.402;9.994;2022-10-16T16:07:34;5.53;;;2.70;;
13584;SDS011;6863;48.402;9.994;2022-10-16T16:10:01;6.10;;;2.95;;
13584;SDS011;6863;48.402;9.994;2022-10-16T16:12:28;2.72;;;2.53;;
13584;SDS011;6863;48.402;9.994;2022-10-16T16:14:53;4.00;;;2.63;;
13584;SDS011;6863;48.402;9.994;2022-10-16T16:17:19;3.20;;;2.80;;
13584;SDS011;6863;48.402;9.994;2022-10-16T16:19:45;2.97;;;2.78;;
13584;SDS011;6863;48.402;9.994;2022-10-16T16:22:11;3.97;;;2.83;;
13584;SDS011;6863;48.402;9.994;2022-10-16T16:24:36;3.45;;;3.10;;
13584;SDS011;6863;48.402;9.994;2022-10-16T16:27:02;3.40;;;3.10;;
13584;SDS011;6863;48.402;9.994;2022-10-16T16:29:27;4.30;;;2.78;;
13584;SDS011;6863;48.402;9.994;2022-10-16T16:31:53;3.47;;;3.15;;
13584;SDS011;6863;48.402;9.994;2022-10-16T16:34:22;6.55;;;3.38;;
13584;SDS011;6863;48.402;9.994;2022-10-16T16:36:49;4.82;;;4.32;;
13584;SDS011;6863;48.402;9.994;2022-10-16T16:39:15;4.45;;;3.97;;
13584;SDS011;6863;48.402;9.994;2022-10-16T16:41:41;3.55;;;2.90;;
13584;SDS011;6863;48.402;9.994;2022-10-16T16:44:07;3.30;;;2.92;;
13584;SDS011;6863;48.402;9.994;2022-10-16T16:46:35;3.03;;;2.80;;
13584;SDS011;6863;48.402;9.994;2022-10-16T16:49:01;5.25;;;3.72;;
13584;SDS011;6863;48.402;9.994;2022-10-16T16:51:27;5.50;;;3.53;;
13584;SDS011;6863;48.402;9.994;2022-10-16T16:53:53;4.47;;;3.88;;
13584;SDS011;6863;48.402;9.994;2022-10-16T16:56:20;4.40;;;3.97;;
13584;SDS011;6863;48.402;9.994;2022-10-16T16:58:47;5.45;;;4.85;;
13584;SDS011;6863;48.402;9.994;2022-10-16T17:01:13;10.30;;;4.50;;
13584;SDS011;6863;48.402;9.994;2022-10-16T17:03:41;4.93;;;3.47;;
13584;SDS011;6863;48.402;9.994;2022-10-16T17:06:09;5.38;;;4.82;;
13584;SDS011;6863;48.402;9.994;2022-10-16T17:08:35;5.32;;;4.25;;
13584;SDS011;6863;48.402;9.994;2022-10-16T17:11:02;5.10;;;4.65;;
13584;SDS011;6863;48.402;9.994;2022-10-16T17:13:29;5.55;;;4.20;;
13584;SDS011;6863;48.402;9.994;2022-10-16T17:15:56;4.72;;;4.28;;
13584;SDS011;6863;48.402;9.994;2022-10-16T17:18:22;5.22;;;4.78;;